createdAt,value
2022-11-09T00:02:19.427Z,3.40
2022-11-09T00:04:45.661Z,3.97
2022-11-09T00:07:12.045Z,5.20
2022-11-09T00:09:38.272Z,5.20
2022-11-09T00:12:04.459Z,4.05
2022-11-09T00:14:30.774Z,4.57
2022-11-09T00:16:57.062Z,4.53
2022-11-09T00:19:23.324Z,4.78
2022-11-09T00:21:49.494Z,3.60
2022-11-09T00:24:17.397Z,4.20
2022-11-09T00:26:43.628Z,4.28
2022-11-09T00:29:09.947Z,4.75
2022-11-09T00:31:36.203Z,4.55
2022-11-09T00:34:02.375Z,4.35
2022-11-09T00:36:28.552Z,4.43
2022-11-09T00:38:54.713Z,4.28
2022-11-09T00:41:20.845Z,5.05
2022-11-09T00:43:46.994Z,6.13
2022-11-09T00:46:13.152Z,6.35
2022-11-09T00:48:39.557Z,5.00
2022-11-09T00:51:05.690Z,4.93
2022-11-09T00:53:31.835Z,5.25
2022-11-09T00:55:57.971Z,5.70
2022-11-09T00:58:24.091Z,5.82
2022-11-09T01:00:50.256Z,6.20
2022-11-09T01:03:16.639Z,5.57
2022-11-09T01:05:42.983Z,5.38
2022-11-09T01:08:09.113Z,5.65
2022-11-09T01:10:35.216Z,5.65
2022-11-09T01:13:01.358Z,5.75
2022-11-09T01:15:27.467Z,5.32
2022-11-09T01:17:53.628Z,5.28
2022-11-09T01:20:19.739Z,6.10
2022-11-09T01:22:45.874Z,5.53
2022-11-09T01:25:12.012Z,5.53
2022-11-09T01:27:38.152Z,5.80
2022-11-09T01:30:04.292Z,5.05
2022-11-09T01:32:30.419Z,5.78
2022-11-09T01:34:56.587Z,5.63
2022-11-09T01:37:22.739Z,6.13
2022-11-09T01:39:48.836Z,5.75
2022-11-09T01:42:14.944Z,5.93
2022-11-09T01:44:41.074Z,6.45
2022-11-09T01:47:07.200Z,5.68
2022-11-09T01:49:33.313Z,6.03
2022-11-09T01:51:59.459Z,5.68
2022-11-09T01:54:25.589Z,5.75
2022-11-09T01:56:51.713Z,6.07
2022-11-09T01:59:17.847Z,6.18
2022-11-09T02:01:44.036Z,6.38
2022-11-09T02:04:10.207Z,5.78
2022-11-09T02:06:36.396Z,5.80
2022-11-09T02:09:02.575Z,5.95
2022-11-09T02:11:28.686Z,5.22
2022-11-09T02:13:54.850Z,6.22
2022-11-09T02:16:20.967Z,6.32
2022-11-09T02:18:47.091Z,5.57
2022-11-09T02:21:13.239Z,5.35
2022-11-09T02:23:39.385Z,5.68
2022-11-09T02:26:05.523Z,5.97
2022-11-09T02:28:31.664Z,6.32
2022-11-09T02:30:57.785Z,6.38
2022-11-09T02:33:23.896Z,6.00
2022-11-09T02:35:50.036Z,6.60
2022-11-09T02:38:16.165Z,5.22
2022-11-09T02:40:42.309Z,6.05
2022-11-09T02:43:08.418Z,5.22
2022-11-09T02:45:34.538Z,5.53
2022-11-09T02:48:00.658Z,6.05
2022-11-09T02:50:26.794Z,5.95
2022-11-09T02:52:52.910Z,6.15
2022-11-09T02:55:19.064Z,6.75
2022-11-09T02:57:45.170Z,5.93
2022-11-09T03:00:11.317Z,6.68
2022-11-09T03:02:37.464Z,6.57
2022-11-09T03:05:03.609Z,6.45
2022-11-09T03:07:29.730Z,6.68
2022-11-09T03:09:55.834Z,6.60
2022-11-09T03:12:22.056Z,6.15
2022-11-09T03:14:48.182Z,7.82
2022-11-09T03:17:14.310Z,7.80
2022-11-09T03:19:40.444Z,6.00
2022-11-09T03:22:06.577Z,6.20
2022-11-09T03:24:32.686Z,6.97
2022-11-09T03:26:58.822Z,6.90
2022-11-09T03:29:24.932Z,6.85
2022-11-09T03:31:51.059Z,7.43
2022-11-09T03:34:17.168Z,7.13
2022-11-09T03:36:43.288Z,7.05
2022-11-09T03:39:09.452Z,7.22
2022-11-09T03:41:35.612Z,8.18
2022-11-09T03:44:01.736Z,7.20
2022-11-09T03:46:27.836Z,7.13
2022-11-09T03:48:53.957Z,7.43
2022-11-09T03:51:20.097Z,7.57
2022-11-09T03:53:46.207Z,7.43
2022-11-09T03:56:12.339Z,8.18
2022-11-09T03:58:38.450Z,6.80
2022-11-09T04:01:04.574Z,7.60
2022-11-09T04:03:30.734Z,7.40
2022-11-09T04:05:56.849Z,7.60
2022-11-09T04:08:22.956Z,7.75
2022-11-09T04:10:49.087Z,7.25
2022-11-09T04:13:15.229Z,7.43
2022-11-09T04:15:41.393Z,6.13
2022-11-09T04:18:07.509Z,6.45
2022-11-09T04:20:33.631Z,7.07
2022-11-09T04:22:59.800Z,6.82
2022-11-09T04:25:25.929Z,7.35
2022-11-09T04:27:52.115Z,6.07
2022-11-09T04:30:18.231Z,7.40
2022-11-09T04:32:44.381Z,7.78
2022-11-09T04:35:10.489Z,7.07
2022-11-09T04:37:36.601Z,6.68
2022-11-09T04:40:02.728Z,5.75
2022-11-09T04:42:28.846Z,6.18
2022-11-09T04:44:54.994Z,7.10
2022-11-09T04:47:21.117Z,7.78
2022-11-09T04:49:47.257Z,6.57
2022-11-09T04:52:13.390Z,6.15
2022-11-09T04:54:39.534Z,6.50
2022-11-09T04:57:05.680Z,6.13
2022-11-09T04:59:31.789Z,6.05
2022-11-09T05:01:57.924Z,5.65
2022-11-09T05:04:24.060Z,5.53
2022-11-09T05:06:50.241Z,5.43
2022-11-09T05:09:16.416Z,4.97
2022-11-09T05:11:42.556Z,5.72
2022-11-09T05:14:08.677Z,6.05
2022-11-09T05:16:34.790Z,5.55
2022-11-09T05:19:00.921Z,5.03
2022-11-09T05:21:27.079Z,6.32
2022-11-09T05:23:53.191Z,5.50
2022-11-09T05:26:19.307Z,4.97
2022-11-09T05:28:45.459Z,5.70
2022-11-09T05:31:11.607Z,5.22
2022-11-09T05:33:37.757Z,5.38
2022-11-09T05:36:03.872Z,6.07
2022-11-09T05:38:30.015Z,6.30
2022-11-09T05:40:56.263Z,5.95
2022-11-09T05:43:22.570Z,5.60
2022-11-09T05:45:48.875Z,5.80
2022-11-09T05:48:15.032Z,6.25
2022-11-09T05:50:41.169Z,6.50
2022-11-09T05:53:07.290Z,5.53
2022-11-09T05:55:33.452Z,6.32
2022-11-09T05:57:59.557Z,6.00
2022-11-09T06:00:25.671Z,5.65
2022-11-09T06:02:51.789Z,5.82
2022-11-09T06:05:17.899Z,5.50
2022-11-09T06:07:44.037Z,6.50
2022-11-09T06:10:10.158Z,5.72
2022-11-09T06:12:36.318Z,5.63
2022-11-09T06:15:02.461Z,5.57
2022-11-09T06:17:28.570Z,5.53
2022-11-09T06:19:54.698Z,6.25
2022-11-09T06:22:20.842Z,5.95
2022-11-09T06:24:46.991Z,5.68
2022-11-09T06:27:13.134Z,6.35
2022-11-09T06:29:39.252Z,6.63
2022-11-09T06:32:05.395Z,6.30
2022-11-09T06:34:31.534Z,6.25
2022-11-09T06:36:57.680Z,5.57
2022-11-09T06:39:23.798Z,5.40
2022-11-09T06:41:49.914Z,6.55
2022-11-09T06:44:16.065Z,8.10
2022-11-09T06:46:42.281Z,7.10
2022-11-09T06:49:08.427Z,5.93
2022-11-09T06:51:34.619Z,5.50
2022-11-09T06:54:00.764Z,4.80
2022-11-09T06:56:26.950Z,4.32
2022-11-09T07:04:26.978Z,4.40
2022-11-09T07:06:59.044Z,4.22
2022-11-09T07:09:25.218Z,4.60
2022-11-09T07:11:51.357Z,4.15
2022-11-09T07:14:17.475Z,4.35
2022-11-09T07:16:43.585Z,4.28
2022-11-09T07:19:09.744Z,2.83
2022-11-09T07:21:35.881Z,4.10
2022-11-09T07:24:02.042Z,3.90
2022-11-09T07:26:28.171Z,3.60
2022-11-09T07:28:55.604Z,3.10
2022-11-09T07:31:21.762Z,3.60
2022-11-09T07:33:47.906Z,2.70
2022-11-09T07:36:21.427Z,2.90
2022-11-09T07:38:47.933Z,2.42
2022-11-09T07:41:14.091Z,2.63
2022-11-09T07:43:40.216Z,2.78
2022-11-09T07:46:06.370Z,2.78
2022-11-09T07:48:32.486Z,2.70
2022-11-09T07:50:58.617Z,3.05
2022-11-09T07:53:24.911Z,2.50
2022-11-09T07:55:51.052Z,2.30
2022-11-09T07:58:17.189Z,2.38
2022-11-09T08:00:43.319Z,2.53
2022-11-09T08:03:09.456Z,2.60
2022-11-09T08:05:35.581Z,2.03
2022-11-09T08:08:04.043Z,2.35
2022-11-09T08:10:30.181Z,2.05
2022-11-09T08:12:56.293Z,1.98
2022-11-09T08:15:22.431Z,1.90
2022-11-09T08:17:48.582Z,1.88
2022-11-09T08:20:14.704Z,2.10
2022-11-09T08:22:40.849Z,2.00
2022-11-09T08:25:06.984Z,1.80
2022-11-09T08:27:33.119Z,1.80
2022-11-09T08:29:59.233Z,2.10
2022-11-09T08:32:25.970Z,1.90
2022-11-09T08:34:52.094Z,1.77
2022-11-09T08:37:18.242Z,2.10
2022-11-09T08:39:44.354Z,1.58
2022-11-09T08:42:10.556Z,1.77
2022-11-09T08:44:36.759Z,1.45
2022-11-09T08:47:02.878Z,2.55
2022-11-09T08:49:29.004Z,1.45
2022-11-09T08:51:55.157Z,1.60
2022-11-09T08:54:21.261Z,1.85
2022-11-09T08:56:47.396Z,1.80
2022-11-09T08:59:13.543Z,1.95
2022-11-09T09:01:39.717Z,1.70
2022-11-09T09:04:05.872Z,1.60
2022-11-09T09:06:32.142Z,1.60
2022-11-09T09:08:58.359Z,1.42
2022-11-09T09:11:24.515Z,1.60
2022-11-09T09:13:50.678Z,2.65
2022-11-09T09:16:16.819Z,1.45
2022-11-09T09:18:42.978Z,1.90
2022-11-09T09:21:09.114Z,1.70
2022-11-09T09:23:35.242Z,1.63
2022-11-09T09:26:01.346Z,1.90
2022-11-09T09:28:27.457Z,2.20
2022-11-09T09:30:53.623Z,1.40
2022-11-09T09:33:19.754Z,1.98
2022-11-09T09:35:45.891Z,1.63
2022-11-09T09:38:12.041Z,1.63
2022-11-09T09:40:38.149Z,1.73
2022-11-09T09:43:04.272Z,1.60
2022-11-09T09:45:30.423Z,1.35
2022-11-09T09:47:56.622Z,1.27
2022-11-09T09:50:22.846Z,1.50
2022-11-09T09:53:10.542Z,1.50
2022-11-09T09:55:35.120Z,1.48
2022-11-09T09:58:01.248Z,1.30
2022-11-09T10:00:27.407Z,1.52
2022-11-09T10:02:53.514Z,1.50
2022-11-09T10:05:19.639Z,1.30
2022-11-09T10:07:45.896Z,1.38
2022-11-09T10:10:12.066Z,1.20
2022-11-09T10:12:38.188Z,1.60
2022-11-09T10:15:04.334Z,1.30
2022-11-09T10:17:30.490Z,1.55
2022-11-09T10:19:56.636Z,1.40
2022-11-09T10:22:25.101Z,1.42
2022-11-09T10:25:18.477Z,1.63
2022-11-09T10:27:37.368Z,1.60
2022-11-09T10:30:03.746Z,1.50
2022-11-09T10:32:29.923Z,1.80
2022-11-09T10:34:56.060Z,1.65
2022-11-09T10:37:22.206Z,1.50
2022-11-09T10:39:48.355Z,1.73
2022-11-09T10:42:14.480Z,1.55
2022-11-09T10:44:40.602Z,1.73
2022-11-09T10:47:06.800Z,1.73
2022-11-09T10:49:32.943Z,1.73
2022-11-09T10:51:59.070Z,1.67
2022-11-09T10:54:25.184Z,2.10
2022-11-09T10:57:05.537Z,1.75
2022-11-09T10:59:32.399Z,2.00
2022-11-09T11:02:02.263Z,1.70
2022-11-09T11:04:28.657Z,1.50
2022-11-09T11:06:54.853Z,1.80
2022-11-09T11:09:21.050Z,1.80
2022-11-09T11:11:47.169Z,1.60
2022-11-09T11:14:15.852Z,1.52
2022-11-09T11:16:44.518Z,1.80
2022-11-09T11:19:10.633Z,1.65
2022-11-09T11:21:36.780Z,1.52
2022-11-09T11:24:02.924Z,3.15
2022-11-09T11:26:29.051Z,1.73
2022-11-09T11:28:55.238Z,1.67
2022-11-09T11:31:21.373Z,1.58
2022-11-09T11:33:47.526Z,2.03
2022-11-09T11:36:13.666Z,2.00
2022-11-09T11:38:39.795Z,2.00
2022-11-09T11:41:05.938Z,1.40
2022-11-09T11:43:32.135Z,1.52
2022-11-09T11:45:58.297Z,1.67
2022-11-09T11:48:24.438Z,1.20
2022-11-09T11:50:50.589Z,1.95
2022-11-09T11:53:16.736Z,1.35
2022-11-09T11:55:42.873Z,1.65
2022-11-09T11:58:09.022Z,1.70
2022-11-09T12:00:35.178Z,2.03
2022-11-09T12:03:01.359Z,1.55
2022-11-09T12:05:27.587Z,1.80
2022-11-09T12:07:57.245Z,1.67
2022-11-09T12:10:23.728Z,1.70
2022-11-09T12:12:49.881Z,1.50
2022-11-09T12:15:16.032Z,1.63
2022-11-09T12:17:42.179Z,1.77
2022-11-09T12:20:08.350Z,1.45
2022-11-09T12:22:34.481Z,1.77
2022-11-09T12:25:00.608Z,1.60
2022-11-09T12:27:31.964Z,1.65
2022-11-09T12:29:58.936Z,1.42
2022-11-09T12:32:25.078Z,1.88
2022-11-09T12:34:51.208Z,1.42
2022-11-09T12:37:17.351Z,1.90
2022-11-09T12:39:43.474Z,1.58
2022-11-09T12:42:09.626Z,1.83
2022-11-09T12:44:36.000Z,1.75
2022-11-09T12:47:02.224Z,1.60
2022-11-09T12:49:28.379Z,1.80
2022-11-09T12:51:58.843Z,1.60
2022-11-09T12:54:25.331Z,1.60
2022-11-09T12:56:51.495Z,2.20
2022-11-09T12:59:17.622Z,1.95
2022-11-09T13:01:43.819Z,1.65
2022-11-09T13:04:10.000Z,2.03
2022-11-09T13:06:36.199Z,1.60
2022-11-09T13:09:02.375Z,1.80
2022-11-09T13:11:28.531Z,1.80
2022-11-09T13:13:54.653Z,1.73
2022-11-09T13:16:20.787Z,1.55
2022-11-09T13:18:46.947Z,1.73
2022-11-09T13:21:13.076Z,1.77
2022-11-09T13:26:25.349Z,2.13
2022-11-09T13:28:51.472Z,1.90
2022-11-09T13:31:17.621Z,1.70
2022-11-09T13:33:43.801Z,1.88
2022-11-09T13:36:10.003Z,2.55
2022-11-09T13:38:36.170Z,1.73
2022-11-09T13:41:02.357Z,2.00
2022-11-09T13:43:28.476Z,1.60
2022-11-09T13:45:54.598Z,1.58
2022-11-09T13:48:21.019Z,1.48
2022-11-09T13:50:50.111Z,1.42
2022-11-09T13:55:44.693Z,1.63
2022-11-09T13:58:10.848Z,1.60
2022-11-09T14:00:36.992Z,1.98
2022-11-09T14:03:03.166Z,1.77
2022-11-09T14:05:29.285Z,1.85
2022-11-09T14:07:55.469Z,1.73
2022-11-09T14:10:21.604Z,2.22
2022-11-09T14:12:47.743Z,1.92
2022-11-09T14:15:13.904Z,1.77
2022-11-09T14:17:40.023Z,2.22
2022-11-09T14:20:11.525Z,1.50
2022-11-09T14:22:38.099Z,2.28
2022-11-09T14:25:04.266Z,1.88
2022-11-09T14:27:30.411Z,1.70
2022-11-09T14:29:56.529Z,1.80
2022-11-09T14:32:22.671Z,1.98
2022-11-09T14:34:48.828Z,1.85
2022-11-09T14:37:14.969Z,2.63
2022-11-09T14:39:41.104Z,2.25
2022-11-09T14:42:07.241Z,1.98
2022-11-09T14:44:33.393Z,1.88
2022-11-09T14:46:59.515Z,1.75
2022-11-09T14:49:25.646Z,1.85
2022-11-09T14:51:51.802Z,2.10
2022-11-09T14:54:17.936Z,1.98
2022-11-09T14:56:44.131Z,2.08
2022-11-09T14:59:10.254Z,2.00
2022-11-09T15:01:36.395Z,2.22
2022-11-09T15:04:02.562Z,1.70
2022-11-09T15:06:28.997Z,1.85
2022-11-09T15:08:55.205Z,2.20
2022-11-09T15:11:21.329Z,1.63
2022-11-09T15:13:47.492Z,2.10
2022-11-09T15:16:13.627Z,2.20
2022-11-09T15:18:39.788Z,2.20
2022-11-09T15:21:05.928Z,1.58
2022-11-09T15:23:32.042Z,1.90
2022-11-09T15:25:58.187Z,2.20
2022-11-09T15:28:24.745Z,1.60
2022-11-09T15:30:51.118Z,2.03
2022-11-09T15:33:17.252Z,1.90
2022-11-09T15:35:43.467Z,1.73
2022-11-09T15:38:09.588Z,1.70
2022-11-09T15:40:35.746Z,2.00
2022-11-09T15:43:01.897Z,2.25
2022-11-09T15:45:28.051Z,2.38
2022-11-09T15:47:54.205Z,1.90
2022-11-09T15:50:20.340Z,1.77
2022-11-09T15:52:46.497Z,2.38
2022-11-09T15:55:13.793Z,2.50
2022-11-09T15:57:40.032Z,2.40
2022-11-09T16:00:11.345Z,2.22
2022-11-09T16:02:40.500Z,3.28
2022-11-09T16:05:06.620Z,3.03
2022-11-09T16:07:32.748Z,2.17
2022-11-09T16:09:58.925Z,2.58
2022-11-09T16:12:25.076Z,2.33
2022-11-09T16:14:51.246Z,2.40
2022-11-09T16:17:17.379Z,4.13
2022-11-09T16:19:43.510Z,3.40
2022-11-09T16:22:09.640Z,2.30
2022-11-09T16:24:35.758Z,3.03
2022-11-09T16:27:01.894Z,2.60
2022-11-09T16:29:28.020Z,2.42
2022-11-09T16:31:54.168Z,2.25
2022-11-09T16:34:20.304Z,1.90
2022-11-09T16:36:50.851Z,2.30
2022-11-09T16:39:18.589Z,2.67
2022-11-09T16:41:44.740Z,2.50
2022-11-09T16:44:10.890Z,2.28
2022-11-09T16:46:37.025Z,2.88
2022-11-09T16:49:03.177Z,2.80
2022-11-09T16:51:29.290Z,2.83
2022-11-09T16:53:55.406Z,3.00
2022-11-09T16:56:21.567Z,2.60
2022-11-09T16:58:47.719Z,2.33
2022-11-09T17:01:16.342Z,3.38
2022-11-09T17:03:45.329Z,2.78
2022-11-09T17:06:11.685Z,3.17
2022-11-09T17:08:37.865Z,3.50
2022-11-09T17:11:03.988Z,2.28
2022-11-09T17:13:30.123Z,2.22
2022-11-09T17:15:56.268Z,2.95
2022-11-09T17:18:22.748Z,2.85
2022-11-09T17:20:49.047Z,3.33
2022-11-09T17:23:15.199Z,3.00
2022-11-09T17:25:41.358Z,3.00
2022-11-09T17:28:07.470Z,4.07
2022-11-09T17:30:33.588Z,3.00
2022-11-09T17:32:59.760Z,2.53
2022-11-09T17:35:25.901Z,2.97
2022-11-09T17:37:52.056Z,2.92
2022-11-09T17:40:18.176Z,3.95
2022-11-09T17:42:44.323Z,3.30
2022-11-09T17:45:10.441Z,3.30
2022-11-09T17:47:36.558Z,2.72
2022-11-09T17:50:02.695Z,2.63
2022-11-09T17:52:28.809Z,2.67
2022-11-09T17:54:54.932Z,2.63
2022-11-09T17:57:21.100Z,2.83
2022-11-09T17:59:47.220Z,3.92
2022-11-09T18:02:13.366Z,3.45
2022-11-09T18:04:39.505Z,4.43
2022-11-09T18:07:05.674Z,3.60
2022-11-09T18:09:47.258Z,2.80
2022-11-09T18:12:13.376Z,2.90
2022-11-09T18:14:39.514Z,2.25
2022-11-09T18:17:05.627Z,2.53
2022-11-09T18:19:31.775Z,2.25
2022-11-09T18:22:01.186Z,2.10
2022-11-09T18:24:28.888Z,2.17
2022-11-09T18:26:54.997Z,2.33
2022-11-09T18:29:21.170Z,2.50
2022-11-09T18:31:47.328Z,3.33
2022-11-09T18:34:13.500Z,3.30
2022-11-09T18:36:40.163Z,3.03
2022-11-09T18:41:46.732Z,2.10
2022-11-09T18:44:12.872Z,1.77
2022-11-09T18:46:38.982Z,2.25
2022-11-09T18:49:07.864Z,1.58
2022-11-09T18:51:36.323Z,2.08
2022-11-09T18:54:02.426Z,1.50
2022-11-09T18:56:28.570Z,1.90
2022-11-09T18:58:54.702Z,2.58
2022-11-09T19:01:20.832Z,2.80
2022-11-09T19:03:47.018Z,1.95
2022-11-09T19:06:13.219Z,2.50
2022-11-09T19:08:39.346Z,2.30
2022-11-09T19:11:05.547Z,5.25
2022-11-09T19:13:31.671Z,5.35
2022-11-09T19:15:58.479Z,4.28
2022-11-09T19:18:24.938Z,5.82
2022-11-09T19:20:51.068Z,6.03
2022-11-09T19:23:17.196Z,4.68
2022-11-09T19:25:43.331Z,4.50
2022-11-09T19:28:09.468Z,4.38
2022-11-09T19:30:35.596Z,4.72
2022-11-09T19:33:01.718Z,4.68
2022-11-09T19:35:33.791Z,6.00
2022-11-09T19:38:06.089Z,4.22
2022-11-09T19:40:37.018Z,3.28
2022-11-09T19:43:05.851Z,3.13
2022-11-09T19:45:32.103Z,2.78
2022-11-09T19:47:58.334Z,2.13
2022-11-09T19:50:24.487Z,2.30
2022-11-09T19:52:50.630Z,1.55
2022-11-09T19:55:16.804Z,1.73
2022-11-09T19:57:42.994Z,1.90
2022-11-09T20:00:09.244Z,2.05
2022-11-09T20:02:35.380Z,2.15
2022-11-09T20:05:01.543Z,1.95
2022-11-09T20:07:27.671Z,2.50
2022-11-09T20:09:53.801Z,4.05
2022-11-09T20:12:19.945Z,4.38
2022-11-09T20:14:46.192Z,8.10
2022-11-09T20:17:12.516Z,7.65
2022-11-09T20:19:38.644Z,5.20
2022-11-09T20:22:04.855Z,5.47
2022-11-09T20:24:31.060Z,10.55
2022-11-09T20:26:57.183Z,12.40
2022-11-09T20:29:23.483Z,10.70
2022-11-09T20:31:49.649Z,8.13
2022-11-09T20:34:15.768Z,7.25
2022-11-09T20:36:41.906Z,6.60
2022-11-09T20:39:08.031Z,5.97
2022-11-09T20:41:34.162Z,5.40
2022-11-09T20:44:00.290Z,6.43
2022-11-09T20:46:28.922Z,3.80
2022-11-09T20:48:57.806Z,4.07
2022-11-09T20:51:24.266Z,3.75
2022-11-09T20:53:50.437Z,4.03
2022-11-09T20:56:16.620Z,4.25
2022-11-09T20:58:42.749Z,4.20
2022-11-09T21:01:17.974Z,3.30
2022-11-09T21:03:44.153Z,3.10
2022-11-09T21:06:10.266Z,3.33
2022-11-09T21:08:36.438Z,3.10
2022-11-09T21:11:02.606Z,3.15
2022-11-09T21:13:29.083Z,3.25
2022-11-09T21:15:55.226Z,3.95
2022-11-09T21:18:21.524Z,3.70
2022-11-09T21:20:47.953Z,2.88
2022-11-09T21:23:14.116Z,3.58
2022-11-09T21:25:40.383Z,4.13
2022-11-09T21:28:06.504Z,3.50
2022-11-09T21:30:32.640Z,3.20
2022-11-09T21:32:58.798Z,3.50
2022-11-09T21:35:24.937Z,2.90
2022-11-09T21:37:51.063Z,3.35
2022-11-09T21:40:17.264Z,3.22
2022-11-09T21:42:43.440Z,3.25
2022-11-09T21:45:09.573Z,3.15
2022-11-09T21:47:35.709Z,2.22
2022-11-09T21:50:01.847Z,2.85
2022-11-09T21:52:27.975Z,3.10
2022-11-09T21:54:54.113Z,2.60
2022-11-09T21:57:20.222Z,2.28
2022-11-09T21:59:46.377Z,2.60
2022-11-09T22:02:12.510Z,3.25
2022-11-09T22:04:38.650Z,2.70
2022-11-09T22:07:04.811Z,2.70
2022-11-09T22:09:50.549Z,3.33
2022-11-09T22:12:17.102Z,2.75
2022-11-09T22:14:43.235Z,2.80
2022-11-09T22:17:09.368Z,2.97
2022-11-09T22:19:35.505Z,3.10
2022-11-09T22:22:01.636Z,2.85
2022-11-09T22:24:27.776Z,2.90
2022-11-09T22:26:53.894Z,3.42
2022-11-09T22:29:20.184Z,3.30
2022-11-09T22:31:46.304Z,3.30
2022-11-09T22:34:12.440Z,2.97
2022-11-09T22:36:38.586Z,3.08
2022-11-09T22:39:04.706Z,3.60
2022-11-09T22:41:30.837Z,3.00
2022-11-09T22:43:56.965Z,3.05
2022-11-09T22:46:23.117Z,2.47
2022-11-09T22:48:49.230Z,3.05
2022-11-09T22:51:15.354Z,2.72
2022-11-09T22:53:41.501Z,2.80
2022-11-09T22:56:07.609Z,2.58
2022-11-09T22:58:33.753Z,2.97
2022-11-09T23:00:59.882Z,2.50
2022-11-09T23:03:26.031Z,2.97
2022-11-09T23:05:52.181Z,3.00
2022-11-09T23:08:18.315Z,3.40
2022-11-09T23:10:44.456Z,3.30
2022-11-09T23:13:10.597Z,3.03
2022-11-09T23:15:36.717Z,2.85
2022-11-09T23:18:02.825Z,3.25
2022-11-09T23:20:35.155Z,3.20
2022-11-09T23:23:01.749Z,3.15
2022-11-09T23:25:27.873Z,3.15
2022-11-09T23:27:54.021Z,2.72
2022-11-09T23:30:20.183Z,3.22
2022-11-09T23:32:46.322Z,2.63
2022-11-09T23:35:12.460Z,2.83
2022-11-09T23:37:38.572Z,3.80
2022-11-09T23:40:04.686Z,3.38
2022-11-09T23:42:30.844Z,2.72
2022-11-09T23:44:56.966Z,2.88
2022-11-09T23:47:23.102Z,2.72
2022-11-09T23:49:49.268Z,2.80
2022-11-09T23:52:15.388Z,3.25
2022-11-09T23:54:41.538Z,3.38
2022-11-09T23:57:07.678Z,3.13
2022-11-09T23:59:33.840Z,2.85
